sensor_id;sensor_type;location;lat;lon;timestamp;P1;durP1;ratioP1;P2;durP2;ratioP2
11125;SDS011;5617;54.046;10.676;2024-02-21T00:00:54;14.17;;;8.77;;
11125;SDS011;5617;54.046;10.676;2024-02-21T00:03:07;20.37;;;12.50;;
11125;SDS011;5617;54.046;10.676;2024-02-21T00:05:26;15.33;;;8.20;;
11125;SDS011;5617;54.046;10.676;2024-02-21T00:07:41;9.37;;;6.53;;
11125;SDS011;5617;54.046;10.676;2024-02-21T00:10:21;20.07;;;11.30;;
11125;SDS011;5617;54.046;10.676;2024-02-21T00:12:41;15.50;;;9.40;;
11125;SDS011;5617;54.046;10.676;2024-02-21T00:15:01;20.17;;;11.43;;
11125;SDS011;5617;54.046;10.676;2024-02-21T00:17:18;20.43;;;13.47;;
11125;SDS011;5617;54.046;10.676;2024-02-21T00:19:36;21.40;;;11.73;;
11125;SDS011;5617;54.046;10.676;2024-02-21T00:21:51;20.37;;;11.83;;
11125;SDS011;5617;54.046;10.676;2024-02-21T00:24:07;17.40;;;11.80;;
11125;SDS011;5617;54.046;10.676;2024-02-21T00:26:34;18.73;;;10.83;;
11125;SDS011;5617;54.046;10.676;2024-02-21T00:28:57;17.87;;;10.83;;
11125;SDS011;5617;54.046;10.676;2024-02-21T00:31:26;17.83;;;11.17;;
11125;SDS011;5617;54.046;10.676;2024-02-21T00:33:41;19.20;;;11.73;;
11125;SDS011;5617;54.046;10.676;2024-02-21T00:36:12;8.93;;;7.07;;
11125;SDS011;5617;54.046;10.676;2024-02-21T00:38:34;14.90;;;9.47;;
11125;SDS011;5617;54.046;10.676;2024-02-21T00:40:57;18.73;;;11.90;;
11125;SDS011;5617;54.046;10.676;2024-02-21T00:45:44;19.93;;;9.13;;
11125;SDS011;5617;54.046;10.676;2024-02-21T00:51:03;18.43;;;10.17;;
11125;SDS011;5617;54.046;10.676;2024-02-21T00:53:18;21.87;;;12.90;;
11125;SDS011;5617;54.046;10.676;2024-02-21T00:55:32;23.30;;;14.23;;
11125;SDS011;5617;54.046;10.676;2024-02-21T00:57:59;21.23;;;12.77;;
11125;SDS011;5617;54.046;10.676;2024-02-21T01:00:24;22.73;;;13.70;;
11125;SDS011;5617;54.046;10.676;2024-02-21T01:02:41;22.07;;;10.63;;
11125;SDS011;5617;54.046;10.676;2024-02-21T01:05:00;20.43;;;11.80;;
11125;SDS011;5617;54.046;10.676;2024-02-21T01:07:19;20.43;;;13.47;;
11125;SDS011;5617;54.046;10.676;2024-02-21T01:09:35;15.10;;;9.50;;
11125;SDS011;5617;54.046;10.676;2024-02-21T01:11:56;19.97;;;12.33;;
11125;SDS011;5617;54.046;10.676;2024-02-21T01:14:05;16.53;;;10.77;;
11125;SDS011;5617;54.046;10.676;2024-02-21T01:16:22;16.27;;;11.73;;
11125;SDS011;5617;54.046;10.676;2024-02-21T01:18:36;18.57;;;11.00;;
11125;SDS011;5617;54.046;10.676;2024-02-21T01:20:49;21.60;;;12.63;;
11125;SDS011;5617;54.046;10.676;2024-02-21T01:23:02;15.13;;;9.17;;
11125;SDS011;5617;54.046;10.676;2024-02-21T01:25:16;19.90;;;12.90;;
11125;SDS011;5617;54.046;10.676;2024-02-21T01:27:25;20.33;;;14.20;;
11125;SDS011;5617;54.046;10.676;2024-02-21T01:29:34;20.30;;;12.90;;
11125;SDS011;5617;54.046;10.676;2024-02-21T01:31:43;20.97;;;14.53;;
11125;SDS011;5617;54.046;10.676;2024-02-21T01:34:00;16.40;;;12.23;;
11125;SDS011;5617;54.046;10.676;2024-02-21T01:36:11;20.33;;;13.87;;
11125;SDS011;5617;54.046;10.676;2024-02-21T01:38:20;17.90;;;10.23;;
11125;SDS011;5617;54.046;10.676;2024-02-21T01:40:29;21.90;;;11.93;;
11125;SDS011;5617;54.046;10.676;2024-02-21T01:42:38;14.90;;;10.00;;
11125;SDS011;5617;54.046;10.676;2024-02-21T01:44:48;12.07;;;8.47;;
11125;SDS011;5617;54.046;10.676;2024-02-21T01:46:59;16.77;;;10.33;;
11125;SDS011;5617;54.046;10.676;2024-02-21T01:49:07;16.97;;;11.20;;
11125;SDS011;5617;54.046;10.676;2024-02-21T01:51:20;14.90;;;10.17;;
11125;SDS011;5617;54.046;10.676;2024-02-21T01:53:34;19.30;;;11.30;;
11125;SDS011;5617;54.046;10.676;2024-02-21T01:55:48;13.63;;;9.67;;
11125;SDS011;5617;54.046;10.676;2024-02-21T01:57:59;15.07;;;10.40;;
11125;SDS011;5617;54.046;10.676;2024-02-21T02:00:09;15.67;;;11.50;;
11125;SDS011;5617;54.046;10.676;2024-02-21T02:02:22;18.50;;;11.60;;
11125;SDS011;5617;54.046;10.676;2024-02-21T02:04:31;17.00;;;10.37;;
11125;SDS011;5617;54.046;10.676;2024-02-21T02:06:42;18.07;;;11.90;;
11125;SDS011;5617;54.046;10.676;2024-02-21T02:08:52;15.50;;;10.73;;
11125;SDS011;5617;54.046;10.676;2024-02-21T02:11:01;15.70;;;10.30;;
11125;SDS011;5617;54.046;10.676;2024-02-21T02:13:15;16.10;;;12.03;;
11125;SDS011;5617;54.046;10.676;2024-02-21T02:15:24;16.67;;;12.40;;
11125;SDS011;5617;54.046;10.676;2024-02-21T02:17:32;19.03;;;11.93;;
11125;SDS011;5617;54.046;10.676;2024-02-21T02:19:47;16.50;;;11.73;;
11125;SDS011;5617;54.046;10.676;2024-02-21T02:21:59;13.93;;;10.10;;
11125;SDS011;5617;54.046;10.676;2024-02-21T02:24:14;13.53;;;9.17;;
11125;SDS011;5617;54.046;10.676;2024-02-21T02:26:24;16.00;;;10.90;;
11125;SDS011;5617;54.046;10.676;2024-02-21T02:28:32;17.33;;;11.77;;
11125;SDS011;5617;54.046;10.676;2024-02-21T02:30:41;18.60;;;11.03;;
11125;SDS011;5617;54.046;10.676;2024-02-21T02:32:50;14.33;;;10.87;;
11125;SDS011;5617;54.046;10.676;2024-02-21T02:35:05;15.40;;;12.17;;
11125;SDS011;5617;54.046;10.676;2024-02-21T02:37:14;7.90;;;5.57;;
11125;SDS011;5617;54.046;10.676;2024-02-21T02:39:26;13.13;;;9.57;;
11125;SDS011;5617;54.046;10.676;2024-02-21T02:41:35;8.90;;;7.70;;
11125;SDS011;5617;54.046;10.676;2024-02-21T02:43:44;15.60;;;11.40;;
11125;SDS011;5617;54.046;10.676;2024-02-21T02:45:53;13.80;;;9.67;;
11125;SDS011;5617;54.046;10.676;2024-02-21T02:48:02;13.20;;;9.47;;
11125;SDS011;5617;54.046;10.676;2024-02-21T02:50:11;14.17;;;10.47;;
11125;SDS011;5617;54.046;10.676;2024-02-21T02:52:22;9.93;;;5.90;;
11125;SDS011;5617;54.046;10.676;2024-02-21T02:54:42;13.70;;;8.63;;
11125;SDS011;5617;54.046;10.676;2024-02-21T02:56:50;15.87;;;9.43;;
11125;SDS011;5617;54.046;10.676;2024-02-21T02:58:59;14.83;;;10.70;;
11125;SDS011;5617;54.046;10.676;2024-02-21T03:01:07;11.93;;;8.27;;
11125;SDS011;5617;54.046;10.676;2024-02-21T03:03:16;15.23;;;9.63;;
11125;SDS011;5617;54.046;10.676;2024-02-21T03:05:24;8.87;;;7.93;;
11125;SDS011;5617;54.046;10.676;2024-02-21T03:07:33;9.03;;;7.27;;
11125;SDS011;5617;54.046;10.676;2024-02-21T03:09:43;13.37;;;9.60;;
11125;SDS011;5617;54.046;10.676;2024-02-21T03:11:53;12.90;;;10.03;;
11125;SDS011;5617;54.046;10.676;2024-02-21T03:14:13;11.17;;;7.57;;
11125;SDS011;5617;54.046;10.676;2024-02-21T03:16:22;8.50;;;5.33;;
11125;SDS011;5617;54.046;10.676;2024-02-21T03:18:32;12.50;;;9.10;;
11125;SDS011;5617;54.046;10.676;2024-02-21T03:20:44;8.73;;;5.93;;
11125;SDS011;5617;54.046;10.676;2024-02-21T03:22:52;15.37;;;10.00;;
11125;SDS011;5617;54.046;10.676;2024-02-21T03:25:01;15.27;;;10.40;;
11125;SDS011;5617;54.046;10.676;2024-02-21T03:27:09;14.23;;;9.93;;
11125;SDS011;5617;54.046;10.676;2024-02-21T03:29:23;12.30;;;8.83;;
11125;SDS011;5617;54.046;10.676;2024-02-21T03:31:33;11.53;;;8.97;;
11125;SDS011;5617;54.046;10.676;2024-02-21T03:33:42;11.30;;;9.07;;
11125;SDS011;5617;54.046;10.676;2024-02-21T03:35:57;11.80;;;6.40;;
11125;SDS011;5617;54.046;10.676;2024-02-21T03:38:05;7.17;;;5.63;;
11125;SDS011;5617;54.046;10.676;2024-02-21T03:40:16;9.77;;;6.60;;
11125;SDS011;5617;54.046;10.676;2024-02-21T03:42:33;8.80;;;7.77;;
11125;SDS011;5617;54.046;10.676;2024-02-21T03:44:41;7.67;;;5.83;;
11125;SDS011;5617;54.046;10.676;2024-02-21T03:46:50;12.63;;;8.70;;
11125;SDS011;5617;54.046;10.676;2024-02-21T03:48:58;8.90;;;7.37;;
11125;SDS011;5617;54.046;10.676;2024-02-21T03:51:08;10.20;;;8.50;;
11125;SDS011;5617;54.046;10.676;2024-02-21T03:53:23;10.00;;;7.63;;
11125;SDS011;5617;54.046;10.676;2024-02-21T03:55:41;8.90;;;5.60;;
11125;SDS011;5617;54.046;10.676;2024-02-21T03:57:52;9.37;;;7.33;;
11125;SDS011;5617;54.046;10.676;2024-02-21T04:00:10;9.83;;;6.73;;
11125;SDS011;5617;54.046;10.676;2024-02-21T04:02:19;10.60;;;8.03;;
11125;SDS011;5617;54.046;10.676;2024-02-21T04:04:28;9.97;;;5.90;;
11125;SDS011;5617;54.046;10.676;2024-02-21T04:06:45;9.60;;;6.87;;
11125;SDS011;5617;54.046;10.676;2024-02-21T04:08:55;7.93;;;5.83;;
11125;SDS011;5617;54.046;10.676;2024-02-21T04:11:06;6.93;;;5.30;;
11125;SDS011;5617;54.046;10.676;2024-02-21T04:13:15;7.73;;;6.13;;
11125;SDS011;5617;54.046;10.676;2024-02-21T04:15:23;7.67;;;5.47;;
11125;SDS011;5617;54.046;10.676;2024-02-21T04:17:32;8.47;;;6.13;;
11125;SDS011;5617;54.046;10.676;2024-02-21T04:19:48;9.30;;;7.43;;
11125;SDS011;5617;54.046;10.676;2024-02-21T04:21:57;5.87;;;4.77;;
11125;SDS011;5617;54.046;10.676;2024-02-21T04:24:09;9.23;;;6.90;;
11125;SDS011;5617;54.046;10.676;2024-02-21T04:26:23;9.20;;;7.00;;
11125;SDS011;5617;54.046;10.676;2024-02-21T04:28:45;7.10;;;5.13;;
11125;SDS011;5617;54.046;10.676;2024-02-21T04:30:56;8.57;;;6.87;;
11125;SDS011;5617;54.046;10.676;2024-02-21T04:33:08;7.70;;;5.67;;
11125;SDS011;5617;54.046;10.676;2024-02-21T04:35:19;8.77;;;6.87;;
11125;SDS011;5617;54.046;10.676;2024-02-21T04:37:29;5.23;;;4.60;;
11125;SDS011;5617;54.046;10.676;2024-02-21T04:39:46;5.30;;;4.63;;
11125;SDS011;5617;54.046;10.676;2024-02-21T04:41:59;6.20;;;5.27;;
11125;SDS011;5617;54.046;10.676;2024-02-21T04:44:07;7.10;;;6.03;;
11125;SDS011;5617;54.046;10.676;2024-02-21T04:46:25;5.80;;;5.23;;
11125;SDS011;5617;54.046;10.676;2024-02-21T04:48:50;8.37;;;6.30;;
11125;SDS011;5617;54.046;10.676;2024-02-21T04:51:03;7.63;;;5.50;;
11125;SDS011;5617;54.046;10.676;2024-02-21T04:53:21;4.73;;;3.70;;
11125;SDS011;5617;54.046;10.676;2024-02-21T04:55:30;5.10;;;4.30;;
11125;SDS011;5617;54.046;10.676;2024-02-21T04:57:42;4.97;;;4.10;;
11125;SDS011;5617;54.046;10.676;2024-02-21T04:59:52;4.43;;;4.03;;
11125;SDS011;5617;54.046;10.676;2024-02-21T05:02:06;5.10;;;4.60;;
11125;SDS011;5617;54.046;10.676;2024-02-21T05:04:19;4.23;;;3.43;;
11125;SDS011;5617;54.046;10.676;2024-02-21T05:06:27;2.63;;;1.57;;
11125;SDS011;5617;54.046;10.676;2024-02-21T05:08:36;2.13;;;1.13;;
11125;SDS011;5617;54.046;10.676;2024-02-21T05:10:44;2.17;;;1.10;;
11125;SDS011;5617;54.046;10.676;2024-02-21T05:12:54;2.00;;;1.10;;
11125;SDS011;5617;54.046;10.676;2024-02-21T05:15:03;1.73;;;0.90;;
11125;SDS011;5617;54.046;10.676;2024-02-21T05:17:15;2.73;;;0.87;;
11125;SDS011;5617;54.046;10.676;2024-02-21T05:19:43;1.40;;;0.50;;
11125;SDS011;5617;54.046;10.676;2024-02-21T05:21:51;1.47;;;0.60;;
11125;SDS011;5617;54.046;10.676;2024-02-21T05:24:00;1.57;;;1.03;;
11125;SDS011;5617;54.046;10.676;2024-02-21T05:26:09;1.80;;;0.90;;
11125;SDS011;5617;54.046;10.676;2024-02-21T05:28:26;1.57;;;1.03;;
11125;SDS011;5617;54.046;10.676;2024-02-21T05:30:35;1.77;;;0.70;;
11125;SDS011;5617;54.046;10.676;2024-02-21T05:32:44;2.40;;;1.00;;
11125;SDS011;5617;54.046;10.676;2024-02-21T05:34:53;2.37;;;1.00;;
11125;SDS011;5617;54.046;10.676;2024-02-21T05:37:05;1.27;;;0.67;;
11125;SDS011;5617;54.046;10.676;2024-02-21T05:39:13;2.50;;;0.80;;
11125;SDS011;5617;54.046;10.676;2024-02-21T05:41:21;4.33;;;1.10;;
11125;SDS011;5617;54.046;10.676;2024-02-21T05:43:31;2.20;;;0.80;;
11125;SDS011;5617;54.046;10.676;2024-02-21T05:45:39;3.33;;;0.80;;
11125;SDS011;5617;54.046;10.676;2024-02-21T05:47:49;1.67;;;0.80;;
11125;SDS011;5617;54.046;10.676;2024-02-21T05:50:00;1.87;;;0.70;;
11125;SDS011;5617;54.046;10.676;2024-02-21T05:52:10;2.83;;;0.97;;
11125;SDS011;5617;54.046;10.676;2024-02-21T05:54:20;3.93;;;0.70;;
11125;SDS011;5617;54.046;10.676;2024-02-21T05:56:29;4.47;;;1.37;;
11125;SDS011;5617;54.046;10.676;2024-02-21T05:58:39;3.00;;;0.90;;
11125;SDS011;5617;54.046;10.676;2024-02-21T06:00:49;2.47;;;1.10;;
11125;SDS011;5617;54.046;10.676;2024-02-21T06:02:58;4.03;;;1.00;;
11125;SDS011;5617;54.046;10.676;2024-02-21T06:05:09;2.60;;;1.30;;
11125;SDS011;5617;54.046;10.676;2024-02-21T06:07:18;2.43;;;0.80;;
11125;SDS011;5617;54.046;10.676;2024-02-21T06:09:27;5.57;;;1.10;;
11125;SDS011;5617;54.046;10.676;2024-02-21T06:11:36;2.13;;;1.03;;
11125;SDS011;5617;54.046;10.676;2024-02-21T06:13:54;1.73;;;0.90;;
11125;SDS011;5617;54.046;10.676;2024-02-21T06:16:03;2.97;;;1.10;;
11125;SDS011;5617;54.046;10.676;2024-02-21T06:18:13;3.33;;;1.30;;
11125;SDS011;5617;54.046;10.676;2024-02-21T06:20:27;1.97;;;1.03;;
11125;SDS011;5617;54.046;10.676;2024-02-21T06:22:36;2.80;;;0.90;;
11125;SDS011;5617;54.046;10.676;2024-02-21T06:24:45;1.03;;;0.70;;
11125;SDS011;5617;54.046;10.676;2024-02-21T06:26:55;2.27;;;1.17;;
11125;SDS011;5617;54.046;10.676;2024-02-21T06:29:08;1.97;;;0.90;;
11125;SDS011;5617;54.046;10.676;2024-02-21T06:31:19;2.57;;;1.03;;
11125;SDS011;5617;54.046;10.676;2024-02-21T06:33:36;4.70;;;1.60;;
11125;SDS011;5617;54.046;10.676;2024-02-21T06:35:44;5.50;;;1.30;;
11125;SDS011;5617;54.046;10.676;2024-02-21T06:37:54;4.20;;;1.27;;
11125;SDS011;5617;54.046;10.676;2024-02-21T06:40:04;5.90;;;1.30;;
11125;SDS011;5617;54.046;10.676;2024-02-21T06:42:16;1.93;;;1.03;;
11125;SDS011;5617;54.046;10.676;2024-02-21T06:44:26;2.70;;;1.00;;
11125;SDS011;5617;54.046;10.676;2024-02-21T06:46:35;2.50;;;1.23;;
11125;SDS011;5617;54.046;10.676;2024-02-21T06:48:44;2.90;;;1.20;;
11125;SDS011;5617;54.046;10.676;2024-02-21T06:51:00;4.93;;;1.30;;
11125;SDS011;5617;54.046;10.676;2024-02-21T06:53:16;4.47;;;1.00;;
11125;SDS011;5617;54.046;10.676;2024-02-21T06:55:25;2.93;;;1.20;;
11125;SDS011;5617;54.046;10.676;2024-02-21T06:57:34;3.53;;;1.20;;
11125;SDS011;5617;54.046;10.676;2024-02-21T06:59:50;2.33;;;1.07;;
11125;SDS011;5617;54.046;10.676;2024-02-21T07:01:59;3.30;;;1.03;;
11125;SDS011;5617;54.046;10.676;2024-02-21T07:04:08;3.53;;;1.40;;
11125;SDS011;5617;54.046;10.676;2024-02-21T07:06:15;2.70;;;1.30;;
11125;SDS011;5617;54.046;10.676;2024-02-21T07:08:28;4.13;;;1.43;;
11125;SDS011;5617;54.046;10.676;2024-02-21T07:10:36;3.67;;;1.30;;
11125;SDS011;5617;54.046;10.676;2024-02-21T07:12:46;6.57;;;2.00;;
11125;SDS011;5617;54.046;10.676;2024-02-21T07:15:06;3.23;;;1.57;;
11125;SDS011;5617;54.046;10.676;2024-02-21T07:17:20;3.53;;;1.60;;
11125;SDS011;5617;54.046;10.676;2024-02-21T07:19:29;3.00;;;1.60;;
11125;SDS011;5617;54.046;10.676;2024-02-21T07:21:38;4.97;;;1.53;;
11125;SDS011;5617;54.046;10.676;2024-02-21T07:23:48;6.87;;;1.80;;
11125;SDS011;5617;54.046;10.676;2024-02-21T07:25:57;5.83;;;1.70;;
11125;SDS011;5617;54.046;10.676;2024-02-21T07:28:06;4.60;;;2.00;;
11125;SDS011;5617;54.046;10.676;2024-02-21T07:30:17;3.97;;;1.50;;
11125;SDS011;5617;54.046;10.676;2024-02-21T07:32:25;7.37;;;2.30;;
11125;SDS011;5617;54.046;10.676;2024-02-21T07:34:35;7.83;;;1.93;;
11125;SDS011;5617;54.046;10.676;2024-02-21T07:36:55;3.70;;;1.80;;
11125;SDS011;5617;54.046;10.676;2024-02-21T07:39:04;6.10;;;1.80;;
11125;SDS011;5617;54.046;10.676;2024-02-21T07:41:14;5.93;;;1.80;;
11125;SDS011;5617;54.046;10.676;2024-02-21T07:43:23;6.10;;;1.60;;
11125;SDS011;5617;54.046;10.676;2024-02-21T07:45:36;3.53;;;1.60;;
11125;SDS011;5617;54.046;10.676;2024-02-21T07:47:46;5.73;;;1.77;;
11125;SDS011;5617;54.046;10.676;2024-02-21T07:49:53;5.37;;;1.93;;
11125;SDS011;5617;54.046;10.676;2024-02-21T07:52:02;4.93;;;1.80;;
11125;SDS011;5617;54.046;10.676;2024-02-21T07:54:11;4.90;;;1.90;;
11125;SDS011;5617;54.046;10.676;2024-02-21T07:56:27;4.70;;;1.83;;
11125;SDS011;5617;54.046;10.676;2024-02-21T07:58:40;6.23;;;2.43;;
11125;SDS011;5617;54.046;10.676;2024-02-21T08:01:03;4.33;;;1.93;;
11125;SDS011;5617;54.046;10.676;2024-02-21T08:03:14;4.80;;;1.73;;
11125;SDS011;5617;54.046;10.676;2024-02-21T08:05:25;5.13;;;1.80;;
11125;SDS011;5617;54.046;10.676;2024-02-21T08:07:39;6.17;;;2.23;;
11125;SDS011;5617;54.046;10.676;2024-02-21T08:09:50;5.67;;;1.67;;
11125;SDS011;5617;54.046;10.676;2024-02-21T08:11:59;6.20;;;1.90;;
11125;SDS011;5617;54.046;10.676;2024-02-21T08:14:13;7.43;;;1.63;;
11125;SDS011;5617;54.046;10.676;2024-02-21T08:16:30;6.23;;;2.30;;
11125;SDS011;5617;54.046;10.676;2024-02-21T08:18:38;5.33;;;1.80;;
11125;SDS011;5617;54.046;10.676;2024-02-21T08:20:47;7.53;;;2.10;;
11125;SDS011;5617;54.046;10.676;2024-02-21T08:23:01;4.83;;;1.97;;
11125;SDS011;5617;54.046;10.676;2024-02-21T08:25:10;8.53;;;2.07;;
11125;SDS011;5617;54.046;10.676;2024-02-21T08:27:19;6.37;;;1.90;;
11125;SDS011;5617;54.046;10.676;2024-02-21T08:29:27;6.43;;;2.00;;
11125;SDS011;5617;54.046;10.676;2024-02-21T08:31:52;6.90;;;2.17;;
11125;SDS011;5617;54.046;10.676;2024-02-21T08:34:02;6.50;;;2.00;;
11125;SDS011;5617;54.046;10.676;2024-02-21T08:36:16;5.13;;;1.93;;
11125;SDS011;5617;54.046;10.676;2024-02-21T08:38:25;5.10;;;2.30;;
11125;SDS011;5617;54.046;10.676;2024-02-21T08:40:37;9.30;;;1.90;;
11125;SDS011;5617;54.046;10.676;2024-02-21T08:42:47;4.23;;;1.63;;
11125;SDS011;5617;54.046;10.676;2024-02-21T08:44:58;9.33;;;2.40;;
11125;SDS011;5617;54.046;10.676;2024-02-21T08:47:10;7.37;;;2.50;;
11125;SDS011;5617;54.046;10.676;2024-02-21T08:49:27;5.70;;;2.03;;
11125;SDS011;5617;54.046;10.676;2024-02-21T08:51:42;9.33;;;2.60;;
11125;SDS011;5617;54.046;10.676;2024-02-21T08:53:50;10.50;;;2.47;;
11125;SDS011;5617;54.046;10.676;2024-02-21T08:56:00;15.23;;;2.40;;
11125;SDS011;5617;54.046;10.676;2024-02-21T08:58:09;8.33;;;2.30;;
11125;SDS011;5617;54.046;10.676;2024-02-21T09:00:20;8.80;;;2.13;;
11125;SDS011;5617;54.046;10.676;2024-02-21T09:02:39;5.37;;;1.70;;
11125;SDS011;5617;54.046;10.676;2024-02-21T09:04:50;7.40;;;2.47;;
11125;SDS011;5617;54.046;10.676;2024-02-21T09:06:59;8.27;;;2.27;;
11125;SDS011;5617;54.046;10.676;2024-02-21T09:09:07;9.93;;;2.37;;
11125;SDS011;5617;54.046;10.676;2024-02-21T09:11:17;6.93;;;1.77;;
11125;SDS011;5617;54.046;10.676;2024-02-21T09:13:35;6.17;;;1.80;;
11125;SDS011;5617;54.046;10.676;2024-02-21T09:15:43;5.53;;;1.90;;
11125;SDS011;5617;54.046;10.676;2024-02-21T09:18:02;6.63;;;2.20;;
11125;SDS011;5617;54.046;10.676;2024-02-21T09:20:11;4.33;;;1.50;;
11125;SDS011;5617;54.046;10.676;2024-02-21T09:22:33;9.40;;;2.03;;
11125;SDS011;5617;54.046;10.676;2024-02-21T09:24:43;8.33;;;2.20;;
11125;SDS011;5617;54.046;10.676;2024-02-21T09:26:58;7.50;;;1.60;;
11125;SDS011;5617;54.046;10.676;2024-02-21T09:29:07;7.03;;;1.73;;
11125;SDS011;5617;54.046;10.676;2024-02-21T09:31:16;10.93;;;2.40;;
11125;SDS011;5617;54.046;10.676;2024-02-21T09:33:29;7.73;;;2.40;;
11125;SDS011;5617;54.046;10.676;2024-02-21T09:35:39;6.97;;;2.13;;
11125;SDS011;5617;54.046;10.676;2024-02-21T09:37:49;7.57;;;2.30;;
11125;SDS011;5617;54.046;10.676;2024-02-21T09:39:58;8.53;;;1.97;;
11125;SDS011;5617;54.046;10.676;2024-02-21T09:42:07;7.43;;;1.90;;
11125;SDS011;5617;54.046;10.676;2024-02-21T09:44:34;8.30;;;2.20;;
11125;SDS011;5617;54.046;10.676;2024-02-21T09:46:56;7.23;;;1.93;;
11125;SDS011;5617;54.046;10.676;2024-02-21T09:49:17;6.03;;;1.60;;
11125;SDS011;5617;54.046;10.676;2024-02-21T09:51:36;6.77;;;2.13;;
11125;SDS011;5617;54.046;10.676;2024-02-21T09:53:50;6.27;;;2.13;;
11125;SDS011;5617;54.046;10.676;2024-02-21T09:56:15;7.20;;;1.93;;
11125;SDS011;5617;54.046;10.676;2024-02-21T09:58:29;6.37;;;2.00;;
11125;SDS011;5617;54.046;10.676;2024-02-21T10:00:38;4.40;;;1.40;;
11125;SDS011;5617;54.046;10.676;2024-02-21T10:02:57;8.50;;;1.97;;
11125;SDS011;5617;54.046;10.676;2024-02-21T10:05:08;8.20;;;1.80;;
11125;SDS011;5617;54.046;10.676;2024-02-21T10:07:18;11.63;;;2.13;;
11125;SDS011;5617;54.046;10.676;2024-02-21T10:09:33;8.33;;;2.57;;
11125;SDS011;5617;54.046;10.676;2024-02-21T10:11:42;9.57;;;2.00;;
11125;SDS011;5617;54.046;10.676;2024-02-21T10:14:03;5.00;;;2.00;;
11125;SDS011;5617;54.046;10.676;2024-02-21T10:16:13;3.40;;;1.03;;
11125;SDS011;5617;54.046;10.676;2024-02-21T10:18:24;5.90;;;2.03;;
11125;SDS011;5617;54.046;10.676;2024-02-21T10:20:37;6.70;;;2.13;;
11125;SDS011;5617;54.046;10.676;2024-02-21T10:22:47;6.07;;;1.60;;
11125;SDS011;5617;54.046;10.676;2024-02-21T10:25:06;7.40;;;2.23;;
11125;SDS011;5617;54.046;10.676;2024-02-21T10:27:15;8.03;;;1.90;;
11125;SDS011;5617;54.046;10.676;2024-02-21T10:29:23;5.33;;;1.80;;
11125;SDS011;5617;54.046;10.676;2024-02-21T10:31:33;5.47;;;1.43;;
11125;SDS011;5617;54.046;10.676;2024-02-21T10:33:53;7.47;;;2.00;;
11125;SDS011;5617;54.046;10.676;2024-02-21T10:36:12;9.43;;;2.10;;
11125;SDS011;5617;54.046;10.676;2024-02-21T10:38:21;5.83;;;1.80;;
11125;SDS011;5617;54.046;10.676;2024-02-21T10:40:30;7.17;;;2.33;;
11125;SDS011;5617;54.046;10.676;2024-02-21T10:42:38;6.07;;;2.03;;
11125;SDS011;5617;54.046;10.676;2024-02-21T10:44:47;6.60;;;2.10;;
11125;SDS011;5617;54.046;10.676;2024-02-21T10:46:59;3.13;;;1.37;;
11125;SDS011;5617;54.046;10.676;2024-02-21T10:49:13;5.37;;;1.90;;
11125;SDS011;5617;54.046;10.676;2024-02-21T10:51:33;8.73;;;1.90;;
11125;SDS011;5617;54.046;10.676;2024-02-21T10:53:55;6.07;;;1.90;;
11125;SDS011;5617;54.046;10.676;2024-02-21T10:56:21;6.90;;;1.93;;
11125;SDS011;5617;54.046;10.676;2024-02-21T10:58:37;7.80;;;2.03;;
11125;SDS011;5617;54.046;10.676;2024-02-21T11:00:53;7.53;;;2.17;;
11125;SDS011;5617;54.046;10.676;2024-02-21T11:03:03;6.90;;;1.90;;
11125;SDS011;5617;54.046;10.676;2024-02-21T11:05:13;8.97;;;2.30;;
11125;SDS011;5617;54.046;10.676;2024-02-21T11:07:25;6.90;;;1.50;;
11125;SDS011;5617;54.046;10.676;2024-02-21T11:09:34;7.37;;;2.33;;
11125;SDS011;5617;54.046;10.676;2024-02-21T11:11:43;5.73;;;1.97;;
11125;SDS011;5617;54.046;10.676;2024-02-21T11:14:03;6.37;;;1.83;;
11125;SDS011;5617;54.046;10.676;2024-02-21T11:16:21;8.07;;;1.77;;
11125;SDS011;5617;54.046;10.676;2024-02-21T11:18:31;4.80;;;1.43;;
11125;SDS011;5617;54.046;10.676;2024-02-21T11:20:49;5.10;;;1.90;;
11125;SDS011;5617;54.046;10.676;2024-02-21T11:22:59;7.67;;;1.83;;
11125;SDS011;5617;54.046;10.676;2024-02-21T11:25:08;8.60;;;2.00;;
11125;SDS011;5617;54.046;10.676;2024-02-21T11:27:27;4.60;;;1.33;;
11125;SDS011;5617;54.046;10.676;2024-02-21T11:29:40;7.10;;;1.93;;
11125;SDS011;5617;54.046;10.676;2024-02-21T11:31:55;6.00;;;1.50;;
11125;SDS011;5617;54.046;10.676;2024-02-21T11:34:05;6.20;;;1.73;;
11125;SDS011;5617;54.046;10.676;2024-02-21T11:36:22;6.17;;;1.87;;
11125;SDS011;5617;54.046;10.676;2024-02-21T11:38:32;4.60;;;1.97;;
11125;SDS011;5617;54.046;10.676;2024-02-21T11:40:41;7.07;;;1.80;;
11125;SDS011;5617;54.046;10.676;2024-02-21T11:43:01;6.50;;;2.23;;
11125;SDS011;5617;54.046;10.676;2024-02-21T11:45:10;8.33;;;2.07;;
11125;SDS011;5617;54.046;10.676;2024-02-21T11:47:23;5.70;;;2.00;;
11125;SDS011;5617;54.046;10.676;2024-02-21T11:49:35;6.73;;;1.77;;
11125;SDS011;5617;54.046;10.676;2024-02-21T11:51:48;5.77;;;2.13;;
11125;SDS011;5617;54.046;10.676;2024-02-21T11:54:07;8.00;;;2.00;;
11125;SDS011;5617;54.046;10.676;2024-02-21T11:56:16;2.50;;;0.93;;
11125;SDS011;5617;54.046;10.676;2024-02-21T11:58:24;3.83;;;1.47;;
11125;SDS011;5617;54.046;10.676;2024-02-21T12:00:45;6.00;;;2.07;;
11125;SDS011;5617;54.046;10.676;2024-02-21T12:03:01;4.93;;;1.90;;
11125;SDS011;5617;54.046;10.676;2024-02-21T12:05:11;5.53;;;1.97;;
11125;SDS011;5617;54.046;10.676;2024-02-21T12:07:22;5.00;;;1.83;;
11125;SDS011;5617;54.046;10.676;2024-02-21T12:09:37;3.90;;;1.70;;
11125;SDS011;5617;54.046;10.676;2024-02-21T12:11:56;5.10;;;1.80;;
11125;SDS011;5617;54.046;10.676;2024-02-21T12:14:05;5.60;;;2.03;;
11125;SDS011;5617;54.046;10.676;2024-02-21T12:16:16;5.97;;;2.13;;
11125;SDS011;5617;54.046;10.676;2024-02-21T12:18:28;4.07;;;2.20;;
11125;SDS011;5617;54.046;10.676;2024-02-21T12:20:38;4.43;;;1.80;;
11125;SDS011;5617;54.046;10.676;2024-02-21T12:22:53;2.13;;;1.40;;
11125;SDS011;5617;54.046;10.676;2024-02-21T12:25:17;4.73;;;1.93;;
11125;SDS011;5617;54.046;10.676;2024-02-21T12:27:31;5.60;;;1.93;;
11125;SDS011;5617;54.046;10.676;2024-02-21T12:29:47;5.70;;;1.63;;
11125;SDS011;5617;54.046;10.676;2024-02-21T12:32:04;3.03;;;1.70;;
11125;SDS011;5617;54.046;10.676;2024-02-21T12:34:14;2.97;;;1.63;;
11125;SDS011;5617;54.046;10.676;2024-02-21T12:36:36;1.73;;;1.10;;
11125;SDS011;5617;54.046;10.676;2024-02-21T12:38:49;3.17;;;1.70;;
11125;SDS011;5617;54.046;10.676;2024-02-21T12:41:10;3.40;;;1.70;;
11125;SDS011;5617;54.046;10.676;2024-02-21T12:43:21;3.83;;;1.53;;
11125;SDS011;5617;54.046;10.676;2024-02-21T12:45:38;2.80;;;1.33;;
11125;SDS011;5617;54.046;10.676;2024-02-21T12:47:58;2.97;;;1.43;;
11125;SDS011;5617;54.046;10.676;2024-02-21T12:50:08;3.83;;;1.73;;
11125;SDS011;5617;54.046;10.676;2024-02-21T12:52:31;3.60;;;2.00;;
11125;SDS011;5617;54.046;10.676;2024-02-21T12:54:41;3.20;;;2.37;;
11125;SDS011;5617;54.046;10.676;2024-02-21T12:56:52;4.77;;;2.90;;
11125;SDS011;5617;54.046;10.676;2024-02-21T12:59:02;3.60;;;2.00;;
11125;SDS011;5617;54.046;10.676;2024-02-21T13:01:11;2.60;;;2.07;;
11125;SDS011;5617;54.046;10.676;2024-02-21T13:03:25;2.33;;;2.07;;
11125;SDS011;5617;54.046;10.676;2024-02-21T13:05:42;3.07;;;2.20;;
11125;SDS011;5617;54.046;10.676;2024-02-21T13:07:55;3.40;;;1.93;;
11125;SDS011;5617;54.046;10.676;2024-02-21T13:10:06;2.93;;;2.33;;
11125;SDS011;5617;54.046;10.676;2024-02-21T13:12:18;4.07;;;2.53;;
11125;SDS011;5617;54.046;10.676;2024-02-21T13:14:27;2.93;;;2.70;;
11125;SDS011;5617;54.046;10.676;2024-02-21T13:16:44;3.27;;;2.97;;
11125;SDS011;5617;54.046;10.676;2024-02-21T13:18:52;3.30;;;2.80;;
11125;SDS011;5617;54.046;10.676;2024-02-21T13:21:02;3.73;;;3.33;;